createdAt,value
2022-08-23T00:01:52.544Z,2.80
2022-08-23T00:04:32.195Z,3.60
2022-08-23T00:07:03.251Z,3.10
2022-08-23T00:09:30.707Z,3.00
2022-08-23T00:12:18.911Z,2.90
2022-08-23T00:14:51.557Z,2.10
2022-08-23T00:17:33.506Z,2.60
2022-08-23T00:20:13.571Z,2.70
2022-08-23T00:22:41.125Z,2.80
2022-08-23T00:25:09.887Z,2.80
2022-08-23T00:27:37.419Z,3.00
2022-08-23T00:30:06.125Z,2.00
2022-08-23T00:32:34.907Z,2.50
2022-08-23T00:35:02.420Z,2.50
2022-08-23T00:37:32.172Z,2.90
2022-08-23T00:40:21.472Z,2.90
2022-08-23T00:43:14.260Z,6.90
2022-08-23T00:46:25.124Z,4.80
2022-08-23T00:48:52.305Z,5.80
2022-08-23T00:51:27.755Z,6.30
2022-08-23T00:53:56.461Z,6.70
2022-08-23T00:56:24.790Z,6.60
2022-08-23T00:59:06.083Z,7.70
2022-08-23T01:01:33.654Z,4.50
2022-08-23T01:04:05.163Z,5.40
2022-08-23T01:06:37.476Z,6.50
2022-08-23T01:09:09.843Z,6.60
2022-08-23T01:11:43.118Z,5.90
2022-08-23T01:14:44.316Z,6.80
2022-08-23T01:17:21.450Z,3.80
2022-08-23T01:20:00.373Z,4.10
2022-08-23T01:22:41.550Z,4.30
2022-08-23T01:25:10.552Z,4.40
2022-08-23T01:27:43.541Z,4.30
2022-08-23T01:30:16.981Z,4.80
2022-08-23T01:35:16.921Z,3.80
2022-08-23T01:37:45.283Z,4.50
2022-08-23T01:40:13.245Z,4.10
2022-08-23T01:42:41.880Z,3.90
2022-08-23T01:45:11.861Z,4.80
2022-08-23T01:47:40.043Z,3.20
2022-08-23T01:50:08.254Z,3.70
2022-08-23T01:52:36.541Z,3.40
2022-08-23T01:55:05.760Z,3.80
2022-08-23T01:57:41.202Z,3.90
2022-08-23T02:00:09.675Z,4.20
2022-08-23T02:02:41.552Z,3.00
2022-08-23T02:05:09.706Z,3.30
2022-08-23T02:07:37.402Z,3.70
2022-08-23T02:10:09.404Z,3.70
2022-08-23T02:12:37.498Z,4.50
2022-08-23T02:15:15.326Z,4.20
2022-08-23T02:17:44.604Z,3.00
2022-08-23T02:20:12.097Z,3.40
2022-08-23T02:22:42.519Z,3.70
2022-08-23T02:25:10.029Z,4.20
2022-08-23T02:27:37.981Z,4.30
2022-08-23T02:30:13.087Z,5.20
2022-08-23T02:32:40.553Z,3.50
2022-08-23T02:35:27.923Z,4.00
2022-08-23T02:37:55.359Z,5.30
2022-08-23T02:40:22.902Z,5.30
2022-08-23T02:42:50.281Z,5.80
2022-08-23T02:45:18.536Z,5.80
2022-08-23T02:47:48.115Z,3.80
2022-08-23T02:50:26.971Z,4.40
2022-08-23T02:52:55.090Z,4.80
2022-08-23T02:55:22.924Z,4.50
2022-08-23T02:57:50.499Z,4.50
2022-08-23T03:00:18.031Z,4.90
2022-08-23T03:02:48.796Z,3.20
2022-08-23T03:07:44.167Z,4.00
2022-08-23T03:10:12.069Z,4.00
2022-08-23T03:12:42.787Z,4.50
2022-08-23T03:15:11.809Z,4.60
2022-08-23T03:17:39.216Z,3.30
2022-08-23T03:20:11.314Z,4.50
2022-08-23T03:22:39.228Z,4.70
2022-08-23T03:25:22.556Z,4.30
2022-08-23T03:28:14.149Z,4.80
2022-08-23T03:30:44.403Z,5.10
2022-08-23T03:33:12.313Z,3.90
2022-08-23T03:35:39.923Z,4.20
2022-08-23T03:38:07.922Z,4.70
2022-08-23T03:40:35.348Z,4.80
2022-08-23T03:43:02.809Z,5.30
2022-08-23T03:45:30.480Z,5.20
2022-08-23T03:47:58.180Z,5.20
2022-08-23T03:50:26.377Z,4.30
2022-08-23T03:52:54.028Z,5.00
2022-08-23T03:55:21.453Z,5.30
2022-08-23T03:57:49.538Z,5.30
2022-08-23T04:00:20.476Z,5.20
2022-08-23T04:02:48.900Z,5.60
2022-08-23T04:05:16.438Z,2.90
2022-08-23T04:07:56.319Z,5.10
2022-08-23T04:10:25.696Z,5.40
2022-08-23T04:12:55.289Z,5.70
2022-08-23T04:15:26.817Z,6.00
2022-08-23T04:20:28.940Z,5.20
2022-08-23T04:23:02.101Z,5.00
2022-08-23T04:28:04.714Z,5.40
2022-08-23T04:30:32.875Z,4.60
2022-08-23T04:33:02.618Z,5.20
2022-08-23T04:35:31.330Z,5.50
2022-08-23T04:37:58.782Z,4.50
2022-08-23T04:40:45.288Z,6.60
2022-08-23T04:43:13.429Z,10.00
2022-08-23T04:45:41.239Z,11.00
2022-08-23T04:48:13.982Z,9.00
2022-08-23T04:53:16.150Z,9.60
2022-08-23T04:55:58.554Z,7.60
2022-08-23T04:58:26.377Z,7.20
2022-08-23T05:00:55.168Z,6.70
2022-08-23T05:03:26.009Z,6.70
2022-08-23T05:05:54.279Z,6.20
2022-08-23T05:08:26.341Z,7.00
2022-08-23T05:10:54.016Z,5.80
2022-08-23T05:13:22.391Z,6.20
2022-08-23T05:15:52.723Z,5.10
2022-08-23T05:18:20.796Z,6.00
2022-08-23T05:20:48.218Z,5.70
2022-08-23T05:23:15.868Z,6.20
2022-08-23T05:25:50.000Z,6.60
2022-08-23T05:28:31.817Z,5.70
2022-08-23T05:31:00.418Z,5.70
2022-08-23T05:33:32.218Z,5.60
2022-08-23T05:35:59.532Z,6.90
2022-08-23T05:38:27.168Z,6.30
2022-08-23T05:41:05.267Z,6.20
2022-08-23T05:43:34.755Z,7.40
2022-08-23T05:46:13.245Z,5.30
2022-08-23T05:48:47.010Z,6.80
2022-08-23T05:51:17.818Z,6.30
2022-08-23T05:53:45.845Z,6.20
2022-08-23T05:56:15.477Z,6.40
2022-08-23T05:58:42.770Z,7.50
2022-08-23T06:01:10.405Z,7.20
2022-08-23T06:03:38.543Z,6.60
2022-08-23T06:06:07.120Z,6.60
2022-08-23T06:08:35.264Z,6.40
2022-08-23T06:11:10.998Z,6.90
2022-08-23T06:13:43.929Z,7.00
2022-08-23T06:16:14.223Z,7.10
2022-08-23T06:18:44.666Z,7.60
2022-08-23T06:21:38.735Z,5.90
2022-08-23T06:24:07.181Z,7.20
2022-08-23T06:26:39.802Z,7.60
2022-08-23T06:29:10.892Z,7.50
2022-08-23T06:31:47.114Z,7.60
2022-08-23T06:34:20.920Z,7.00
2022-08-23T06:37:03.122Z,6.70
2022-08-23T06:39:58.150Z,7.70
2022-08-23T06:42:44.920Z,6.50
2022-08-23T06:45:12.666Z,7.60
2022-08-23T06:47:41.881Z,7.00
2022-08-23T06:50:09.777Z,8.10
2022-08-23T06:52:55.311Z,7.50
2022-08-23T06:55:37.318Z,7.90
2022-08-23T06:58:16.979Z,8.20
2022-08-23T07:01:44.609Z,9.20
2022-08-23T07:04:22.653Z,8.40
2022-08-23T07:07:16.343Z,10.40
2022-08-23T07:09:43.613Z,9.70
2022-08-23T07:12:12.156Z,14.10
2022-08-23T07:14:42.599Z,10.50
2022-08-23T07:17:11.381Z,8.40
2022-08-23T07:19:39.141Z,8.30
2022-08-23T07:22:07.140Z,7.80
2022-08-23T07:24:37.825Z,8.50
2022-08-23T07:27:12.602Z,8.60
2022-08-23T07:32:30.322Z,9.50
2022-08-23T07:34:59.011Z,8.20
2022-08-23T07:37:28.394Z,9.10
2022-08-23T07:39:58.517Z,8.00
2022-08-23T07:42:26.724Z,8.50
2022-08-23T07:44:55.753Z,8.70
2022-08-23T07:47:28.626Z,9.50
2022-08-23T07:49:57.438Z,9.40
2022-08-23T07:52:24.698Z,8.60
2022-08-23T07:54:52.199Z,8.50
2022-08-23T07:57:39.727Z,9.30
2022-08-23T08:00:36.559Z,8.70
2022-08-23T08:03:16.365Z,8.10
2022-08-23T08:06:04.955Z,8.50
2022-08-23T08:08:34.968Z,8.00
2022-08-23T08:11:02.528Z,9.00
2022-08-23T08:13:30.031Z,8.50
2022-08-23T08:15:57.884Z,9.60
2022-08-23T08:18:26.858Z,8.60
2022-08-23T08:21:16.852Z,9.60
2022-08-23T08:24:01.740Z,9.70
2022-08-23T08:26:53.701Z,11.30
2022-08-23T08:29:21.575Z,9.40
2022-08-23T08:31:54.097Z,8.50
2022-08-23T08:36:53.992Z,8.40
2022-08-23T08:39:27.089Z,8.30
2022-08-23T08:42:08.873Z,9.10
2022-08-23T08:44:46.349Z,8.30
2022-08-23T08:47:20.044Z,8.60
2022-08-23T08:50:21.393Z,9.40
2022-08-23T08:52:52.136Z,9.10
2022-08-23T08:55:54.003Z,9.30
2022-08-23T08:58:29.112Z,9.20
2022-08-23T09:00:56.653Z,9.20
2022-08-23T09:03:24.571Z,7.90
2022-08-23T09:06:02.083Z,8.70
2022-08-23T09:09:02.191Z,9.40
2022-08-23T09:12:06.005Z,9.70
2022-08-23T09:14:58.654Z,9.70
2022-08-23T09:17:40.948Z,9.10
2022-08-23T09:20:08.252Z,9.70
2022-08-23T09:22:46.063Z,9.80
2022-08-23T09:25:22.227Z,9.20
2022-08-23T09:27:56.983Z,9.80
2022-08-23T09:30:24.910Z,10.50
2022-08-23T09:32:52.512Z,9.40
2022-08-23T09:35:22.651Z,9.90
2022-08-23T09:38:17.018Z,9.20
2022-08-23T09:40:45.887Z,8.90
2022-08-23T09:43:20.342Z,9.30
2022-08-23T09:45:50.537Z,8.90
2022-08-23T09:48:55.470Z,9.50
2022-08-23T09:51:35.019Z,9.10
2022-08-23T09:54:23.533Z,9.60
2022-08-23T09:56:59.575Z,9.80
2022-08-23T09:59:27.474Z,10.40
2022-08-23T10:02:00.494Z,9.90
2022-08-23T10:04:37.163Z,8.70
2022-08-23T10:07:42.586Z,10.60
2022-08-23T10:10:26.747Z,10.60
2022-08-23T10:12:56.608Z,10.40
2022-08-23T10:15:36.186Z,9.90
2022-08-23T10:18:35.648Z,10.60
2022-08-23T10:21:24.248Z,11.50
2022-08-23T10:24:15.110Z,10.00
2022-08-23T10:27:00.932Z,9.50
2022-08-23T10:29:45.650Z,9.90
2022-08-23T10:32:25.370Z,10.40
2022-08-23T10:35:17.818Z,10.20
2022-08-23T10:38:11.062Z,10.40
2022-08-23T10:40:41.878Z,10.10
2022-08-23T10:43:34.609Z,10.90
2022-08-23T10:46:02.926Z,10.20
2022-08-23T10:48:48.933Z,10.20
2022-08-23T10:51:31.667Z,11.10
2022-08-23T10:54:16.341Z,10.10
2022-08-23T10:56:48.781Z,10.30
2022-08-23T10:59:26.786Z,9.90
2022-08-23T11:02:20.125Z,10.10
2022-08-23T11:05:06.655Z,10.40
2022-08-23T11:07:41.575Z,9.90
2022-08-23T11:10:41.598Z,12.70
2022-08-23T11:13:28.140Z,10.30
2022-08-23T11:15:57.709Z,10.50
2022-08-23T11:18:35.949Z,11.80
2022-08-23T11:21:07.886Z,10.30
2022-08-23T11:23:43.007Z,10.60
2022-08-23T11:26:26.479Z,12.10
2022-08-23T11:28:57.193Z,12.00
2022-08-23T11:31:51.656Z,10.50
2022-08-23T11:34:29.906Z,11.40
2022-08-23T11:37:24.186Z,10.90
2022-08-23T11:42:04.973Z,10.40
2022-08-23T11:44:39.678Z,10.40
2022-08-23T11:47:09.174Z,11.10
2022-08-23T11:49:48.631Z,10.00
2022-08-23T11:52:29.614Z,10.20
2022-08-23T11:55:22.165Z,9.30
2022-08-23T11:58:08.465Z,12.40
2022-08-23T12:00:59.581Z,10.60
2022-08-23T12:03:33.924Z,10.60
2022-08-23T12:06:39.249Z,10.30
2022-08-23T12:09:13.861Z,12.20
2022-08-23T12:11:56.472Z,13.30
2022-08-23T12:14:45.459Z,11.70
2022-08-23T12:17:17.055Z,11.50
2022-08-23T12:19:54.710Z,10.80
2022-08-23T12:22:47.795Z,10.90
2022-08-23T12:25:19.178Z,10.20
2022-08-23T12:27:59.669Z,12.00
2022-08-23T12:30:49.031Z,10.60
2022-08-23T12:33:25.290Z,11.10
2022-08-23T12:36:22.088Z,9.70
2022-08-23T12:39:04.951Z,11.30
2022-08-23T12:41:49.295Z,10.70
2022-08-23T12:44:20.819Z,10.80
2022-08-23T12:46:48.843Z,10.70
2022-08-23T12:49:29.466Z,10.80
2022-08-23T12:52:00.231Z,10.50
2022-08-23T12:54:39.352Z,10.80
2022-08-23T12:57:11.847Z,9.80
2022-08-23T12:59:46.720Z,10.00
2022-08-23T13:02:26.271Z,11.30
2022-08-23T13:04:54.859Z,11.10
2022-08-23T13:07:26.702Z,11.20
2022-08-23T13:09:55.461Z,12.30
2022-08-23T13:12:22.910Z,10.90
2022-08-23T13:14:53.471Z,11.20
2022-08-23T13:17:27.637Z,10.70
2022-08-23T13:20:12.399Z,10.60
2022-08-23T13:23:05.733Z,11.00
2022-08-23T13:25:39.450Z,10.80
2022-08-23T13:28:23.323Z,11.20
2022-08-23T13:31:05.890Z,11.00
2022-08-23T13:33:33.978Z,11.40
2022-08-23T13:36:09.743Z,11.00
2022-08-23T13:38:40.765Z,11.60
2022-08-23T13:41:10.363Z,10.80
2022-08-23T13:43:40.267Z,12.30
2022-08-23T13:46:19.240Z,11.90
2022-08-23T13:49:02.704Z,11.00
2022-08-23T13:51:45.846Z,10.80
2022-08-23T13:54:14.265Z,10.80
2022-08-23T13:56:47.209Z,10.60
2022-08-23T13:59:31.764Z,10.80
2022-08-23T14:02:00.205Z,10.40
2022-08-23T14:04:27.349Z,11.00
2022-08-23T14:06:54.903Z,10.80
2022-08-23T14:09:22.148Z,10.20
2022-08-23T14:11:53.019Z,10.30
2022-08-23T14:14:20.298Z,10.70
2022-08-23T14:16:47.527Z,10.00
2022-08-23T14:19:16.195Z,10.40
2022-08-23T14:21:45.344Z,10.70
2022-08-23T14:24:12.688Z,12.10
2022-08-23T14:26:51.774Z,10.90
2022-08-23T14:29:23.607Z,11.50
2022-08-23T14:31:51.620Z,12.30
2022-08-23T14:34:19.087Z,11.20
2022-08-23T14:39:34.123Z,10.40
2022-08-23T14:42:02.997Z,11.30
2022-08-23T14:44:36.005Z,10.50
2022-08-23T14:47:05.650Z,11.10
2022-08-23T14:49:33.486Z,11.10
2022-08-23T14:52:00.785Z,10.30
2022-08-23T14:54:27.944Z,10.90
2022-08-23T14:56:55.211Z,10.30
2022-08-23T14:59:22.619Z,11.00
2022-08-23T15:01:50.068Z,10.20
2022-08-23T15:04:20.375Z,9.90
2022-08-23T15:07:14.164Z,10.90
2022-08-23T15:09:35.339Z,10.30
2022-08-23T15:14:50.193Z,10.20
2022-08-23T15:17:17.420Z,11.10
2022-08-23T15:19:44.557Z,10.80
2022-08-23T15:22:18.940Z,10.70
2022-08-23T15:24:49.620Z,9.60
2022-08-23T15:27:18.537Z,9.60
2022-08-23T15:29:46.261Z,10.80
2022-08-23T15:32:13.300Z,9.90
2022-08-23T15:34:45.502Z,9.90
2022-08-23T15:37:13.939Z,10.50
2022-08-23T15:39:42.229Z,9.90
2022-08-23T15:42:09.718Z,10.40
2022-08-23T15:44:37.404Z,10.40
2022-08-23T15:47:05.626Z,10.60
2022-08-23T15:49:36.567Z,10.40
2022-08-23T15:52:04.717Z,9.90
2022-08-23T15:54:32.573Z,10.20
2022-08-23T15:56:59.899Z,10.40
2022-08-23T15:59:27.268Z,10.40
2022-08-23T16:01:54.371Z,10.30
2022-08-23T16:04:21.633Z,10.20
2022-08-23T16:06:48.940Z,10.90
2022-08-23T16:09:23.204Z,10.10
2022-08-23T16:11:51.004Z,9.50
2022-08-23T16:14:18.413Z,9.10
2022-08-23T16:16:48.696Z,9.60
2022-08-23T16:19:16.789Z,10.80
2022-08-23T16:21:44.519Z,10.50
2022-08-23T16:24:11.758Z,10.30
2022-08-23T16:26:41.936Z,9.20
2022-08-23T16:29:10.001Z,11.10
2022-08-23T16:31:39.971Z,10.50
2022-08-23T16:34:08.952Z,10.40
2022-08-23T16:36:37.216Z,10.10
2022-08-23T16:39:08.420Z,10.50
2022-08-23T16:41:35.578Z,9.70
2022-08-23T16:44:03.017Z,9.20
2022-08-23T16:46:30.559Z,9.70
2022-08-23T16:48:58.338Z,10.30
2022-08-23T16:51:25.687Z,10.20
2022-08-23T16:54:01.634Z,8.90
2022-08-23T16:56:32.004Z,10.00
2022-08-23T16:58:59.422Z,9.90
2022-08-23T17:01:26.801Z,10.00
2022-08-23T17:03:54.283Z,9.90
2022-08-23T17:06:21.727Z,10.30
2022-08-23T17:08:49.028Z,10.90
2022-08-23T17:11:20.494Z,9.90
2022-08-23T17:15:38.309Z,10.40
2022-08-23T17:18:06.317Z,9.10
2022-08-23T17:20:34.826Z,11.40
2022-08-23T17:23:05.580Z,9.80
2022-08-23T17:25:34.850Z,9.80
2022-08-23T17:28:04.016Z,10.00
2022-08-23T17:30:31.575Z,10.60
2022-08-23T17:32:59.015Z,10.40
2022-08-23T17:35:27.541Z,11.30
2022-08-23T17:37:55.204Z,10.10
2022-08-23T17:40:29.019Z,13.10
2022-08-23T17:42:57.068Z,9.80
2022-08-23T17:45:24.223Z,10.70
2022-08-23T17:47:51.924Z,9.10
2022-08-23T17:50:19.075Z,9.80
2022-08-23T17:52:46.229Z,10.30
2022-08-23T17:55:13.720Z,12.60
2022-08-23T17:57:41.301Z,10.60
2022-08-23T18:00:09.364Z,12.60
2022-08-23T18:02:38.294Z,11.90
2022-08-23T18:05:06.382Z,12.40
2022-08-23T18:07:33.867Z,11.50
2022-08-23T18:10:01.124Z,10.30
2022-08-23T18:12:28.254Z,11.30
2022-08-23T18:14:55.444Z,11.00
2022-08-23T18:17:22.583Z,10.60
2022-08-23T18:19:52.066Z,11.40
2022-08-23T18:22:21.698Z,8.00
2022-08-23T18:24:49.214Z,9.50
2022-08-23T18:27:35.869Z,11.40
2022-08-23T18:30:04.046Z,10.90
2022-08-23T18:32:31.786Z,9.80
2022-08-23T18:34:58.952Z,9.80
2022-08-23T18:37:26.073Z,11.10
2022-08-23T18:39:53.255Z,9.60
2022-08-23T18:42:20.596Z,8.50
2022-08-23T18:44:47.888Z,8.90
2022-08-23T18:47:15.438Z,9.40
2022-08-23T18:49:42.658Z,8.40
2022-08-23T18:52:09.886Z,9.00
2022-08-23T18:54:37.210Z,8.40
2022-08-23T18:57:04.744Z,9.10
2022-08-23T18:59:32.113Z,9.50
2022-08-23T19:01:59.631Z,8.10
2022-08-23T19:04:26.972Z,8.00
2022-08-23T19:06:54.558Z,8.40
2022-08-23T19:09:21.957Z,9.10
2022-08-23T19:11:49.334Z,9.40
2022-08-23T19:14:16.676Z,9.10
2022-08-23T19:16:48.174Z,9.80
2022-08-23T19:19:16.610Z,8.80
2022-08-23T19:21:43.707Z,8.00
2022-08-23T19:24:10.872Z,8.10
2022-08-23T19:26:38.468Z,9.10
2022-08-23T19:29:07.722Z,8.40
2022-08-23T19:31:41.738Z,8.30
2022-08-23T19:34:10.188Z,9.30
2022-08-23T19:36:46.288Z,7.00
2022-08-23T19:39:14.842Z,7.50
2022-08-23T19:41:42.209Z,9.40
2022-08-23T19:44:09.953Z,9.00
2022-08-23T19:46:42.135Z,9.30
2022-08-23T19:49:09.806Z,9.60
2022-08-23T19:51:38.002Z,8.90
2022-08-23T19:54:11.341Z,8.00
2022-08-23T19:56:46.951Z,7.60
2022-08-23T19:59:22.939Z,7.30
2022-08-23T20:01:51.304Z,7.60
2022-08-23T20:04:19.599Z,8.10
2022-08-23T20:06:48.785Z,8.20
2022-08-23T20:09:16.783Z,8.90
2022-08-23T20:11:44.214Z,7.50
2022-08-23T20:14:11.809Z,8.90
2022-08-23T20:16:41.035Z,8.60
2022-08-23T20:19:09.555Z,8.30
2022-08-23T20:21:37.363Z,8.40
2022-08-23T20:24:04.996Z,8.50
2022-08-23T20:26:34.000Z,9.00
2022-08-23T20:29:02.139Z,7.40
2022-08-23T20:31:35.272Z,7.90
2022-08-23T20:34:06.848Z,8.60
2022-08-23T20:36:34.286Z,8.60
2022-08-23T20:39:01.585Z,8.70
2022-08-23T20:41:30.851Z,8.30
2022-08-23T20:43:58.403Z,8.60
2022-08-23T20:46:25.912Z,7.60
2022-08-23T20:48:53.093Z,7.80
2022-08-23T20:51:20.665Z,8.60
2022-08-23T20:53:47.890Z,8.40
2022-08-23T20:56:16.138Z,8.20
2022-08-23T20:58:43.911Z,9.00
2022-08-23T21:01:12.222Z,8.20
2022-08-23T21:03:40.464Z,7.90
2022-08-23T21:06:24.043Z,8.40
2022-08-23T21:08:53.963Z,8.90
2022-08-23T21:11:22.096Z,8.70
2022-08-23T21:13:49.517Z,8.00
2022-08-23T21:16:20.785Z,9.50
2022-08-23T21:18:48.772Z,7.40
2022-08-23T21:21:21.009Z,7.30
2022-08-23T21:23:48.936Z,7.80
2022-08-23T21:26:16.446Z,7.70
2022-08-23T21:28:43.943Z,6.90
2022-08-23T21:31:22.083Z,7.40
2022-08-23T21:33:49.630Z,8.00
2022-08-23T21:36:17.549Z,7.40
2022-08-23T21:38:45.498Z,7.20
2022-08-23T21:41:28.037Z,8.10
2022-08-23T21:43:55.299Z,7.80
2022-08-23T21:46:23.679Z,8.50
2022-08-23T21:48:51.195Z,7.60
2022-08-23T21:51:18.381Z,9.00
2022-08-23T21:53:47.561Z,8.10
2022-08-23T21:56:14.993Z,7.40
2022-08-23T21:58:51.383Z,8.00
2022-08-23T22:01:19.192Z,8.70
2022-08-23T22:03:46.584Z,6.70
2022-08-23T22:06:16.561Z,8.30
2022-08-23T22:08:46.067Z,7.30
2022-08-23T22:11:13.685Z,7.90
2022-08-23T22:13:41.899Z,7.50
2022-08-23T22:16:09.727Z,6.90
2022-08-23T22:18:37.118Z,7.40
2022-08-23T22:21:05.219Z,8.20
2022-08-23T22:23:32.581Z,8.10
2022-08-23T22:26:01.340Z,8.40
2022-08-23T22:28:31.372Z,7.30
2022-08-23T22:31:23.877Z,8.40
2022-08-23T22:33:51.678Z,7.10
2022-08-23T22:36:20.527Z,8.10
2022-08-23T22:38:48.290Z,7.00
2022-08-23T22:41:20.723Z,8.60
2022-08-23T22:43:48.170Z,7.80
2022-08-23T22:46:15.504Z,7.50
2022-08-23T22:48:42.640Z,6.50
2022-08-23T22:51:17.931Z,7.10
2022-08-23T22:53:56.379Z,7.20
2022-08-23T22:56:25.872Z,7.20
2022-08-23T22:58:53.860Z,6.50
2022-08-23T23:01:28.994Z,7.40
2022-08-23T23:03:56.833Z,8.70
2022-08-23T23:06:24.705Z,7.30
2022-08-23T23:08:52.340Z,7.30
2022-08-23T23:11:20.047Z,7.80
2022-08-23T23:13:47.846Z,7.10
2022-08-23T23:16:17.585Z,7.20
2022-08-23T23:19:04.984Z,8.40
2022-08-23T23:21:35.699Z,7.80
2022-08-23T23:24:03.343Z,7.40
2022-08-23T23:26:31.314Z,7.90
2022-08-23T23:28:58.748Z,8.10
2022-08-23T23:31:26.004Z,7.20
2022-08-23T23:33:53.156Z,7.60
2022-08-23T23:36:21.112Z,7.90
2022-08-23T23:38:48.711Z,7.60
2022-08-23T23:41:15.982Z,6.90
2022-08-23T23:43:44.550Z,6.20
2022-08-23T23:46:13.897Z,7.50
2022-08-23T23:48:43.079Z,6.70
2022-08-23T23:51:12.016Z,7.90
2022-08-23T23:53:39.430Z,7.20
2022-08-23T23:56:09.671Z,7.70
2022-08-23T23:58:38.038Z,7.00
